createdAt,value
2022-10-29T00:00:22.948Z,76.77
2022-10-29T00:02:25.129Z,76.65
2022-10-29T00:04:27.032Z,76.64
2022-10-29T00:06:29.909Z,76.20
2022-10-29T00:08:33.716Z,76.35
2022-10-29T00:10:35.591Z,75.88
2022-10-29T00:12:37.491Z,75.55
2022-10-29T00:14:39.410Z,75.36
2022-10-29T00:16:41.345Z,75.43
2022-10-29T00:18:44.029Z,75.45
2022-10-29T00:20:45.918Z,74.77
2022-10-29T00:22:48.289Z,74.89
2022-10-29T00:24:50.202Z,74.68
2022-10-29T00:26:51.984Z,74.98
2022-10-29T00:28:55.583Z,75.72
2022-10-29T00:30:57.502Z,75.81
2022-10-29T00:32:59.386Z,75.93
2022-10-29T00:35:01.159Z,75.67
2022-10-29T00:37:05.258Z,75.42
2022-10-29T00:39:07.149Z,75.51
2022-10-29T00:41:12.527Z,76.10
2022-10-29T00:43:20.181Z,75.95
2022-10-29T00:45:22.184Z,75.77
2022-10-29T00:47:32.060Z,75.30
2022-10-29T00:49:35.106Z,75.50
2022-10-29T00:51:38.665Z,75.53
2022-10-29T00:53:55.016Z,75.38
2022-10-29T00:55:57.881Z,74.95
2022-10-29T00:58:01.045Z,74.35
2022-10-29T01:00:03.954Z,74.55
2022-10-29T01:02:05.976Z,74.39
2022-10-29T01:04:09.263Z,74.08
2022-10-29T01:06:12.378Z,74.17
2022-10-29T01:08:15.445Z,74.18
2022-10-29T01:10:25.126Z,73.81
2022-10-29T01:13:02.216Z,74.02
2022-10-29T01:15:35.967Z,74.06
2022-10-29T01:17:43.656Z,74.27
2022-10-29T01:20:14.737Z,74.27
2022-10-29T01:22:33.437Z,73.81
2022-10-29T01:24:38.008Z,74.14
2022-10-29T01:27:01.331Z,74.21
2022-10-29T01:29:18.280Z,74.41
2022-10-29T01:31:35.733Z,74.33
2022-10-29T01:33:37.539Z,74.35
2022-10-29T01:35:56.466Z,73.68
2022-10-29T01:38:09.438Z,73.54
2022-10-29T01:40:21.725Z,73.44
2022-10-29T01:42:29.538Z,73.40
2022-10-29T01:44:54.285Z,73.69
2022-10-29T01:47:01.613Z,73.96
2022-10-29T01:49:08.158Z,73.89
2022-10-29T01:51:16.905Z,74.04
2022-10-29T01:53:19.469Z,74.38
2022-10-29T01:55:24.253Z,74.26
2022-10-29T01:57:34.059Z,74.19
2022-10-29T01:59:51.307Z,74.59
2022-10-29T02:02:18.609Z,74.45
2022-10-29T02:04:39.013Z,74.54
2022-10-29T02:06:51.043Z,74.37
2022-10-29T02:08:59.126Z,74.72
2022-10-29T02:11:13.210Z,74.30
2022-10-29T02:13:17.715Z,74.47
2022-10-29T02:15:35.007Z,74.04
2022-10-29T02:17:37.582Z,73.86
2022-10-29T02:19:39.605Z,74.25
2022-10-29T02:21:42.738Z,74.34
2022-10-29T02:23:45.009Z,74.11
2022-10-29T02:25:46.942Z,73.87
2022-10-29T02:27:48.904Z,73.86
2022-10-29T02:29:50.862Z,74.04
2022-10-29T02:31:52.677Z,73.80
2022-10-29T02:33:54.566Z,73.53
2022-10-29T02:35:56.477Z,73.70
2022-10-29T02:37:59.373Z,73.23
2022-10-29T02:40:01.307Z,73.24
2022-10-29T02:42:03.344Z,72.76
2022-10-29T02:44:05.169Z,72.20
2022-10-29T02:46:15.308Z,71.70
2022-10-29T02:48:17.185Z,71.71
2022-10-29T02:50:19.183Z,71.96
2022-10-29T02:52:21.249Z,71.44
2022-10-29T02:54:24.131Z,71.40
2022-10-29T02:56:26.199Z,70.99
2022-10-29T02:58:28.190Z,71.32
2022-10-29T03:00:30.028Z,71.08
2022-10-29T03:02:32.088Z,71.26
2022-10-29T03:04:34.318Z,71.04
2022-10-29T03:06:37.383Z,70.94
2022-10-29T03:08:39.283Z,70.88
2022-10-29T03:10:41.185Z,70.87
2022-10-29T03:12:43.056Z,71.19
2022-10-29T03:14:44.989Z,70.88
2022-10-29T03:16:46.871Z,70.88
2022-10-29T03:18:48.786Z,71.16
2022-10-29T03:20:50.644Z,71.08
2022-10-29T03:22:52.597Z,70.99
2022-10-29T03:24:54.471Z,71.05
2022-10-29T03:26:56.289Z,70.97
2022-10-29T03:28:58.238Z,70.74
2022-10-29T03:31:00.169Z,71.10
2022-10-29T03:33:02.066Z,70.31
2022-10-29T03:35:04.193Z,70.53
2022-10-29T03:37:06.123Z,70.42
2022-10-29T03:39:08.089Z,70.09
2022-10-29T03:41:11.048Z,70.31
2022-10-29T03:43:13.049Z,69.84
2022-10-29T03:45:14.992Z,70.13
2022-10-29T03:47:16.934Z,70.23
2022-10-29T03:49:18.798Z,69.96
2022-10-29T03:51:20.725Z,69.01
2022-10-29T03:53:23.530Z,68.83
2022-10-29T03:55:25.508Z,68.44
2022-10-29T03:57:27.381Z,68.87
2022-10-29T03:59:29.231Z,68.86
2022-10-29T04:01:31.204Z,69.11
2022-10-29T04:03:35.220Z,68.84
2022-10-29T04:05:37.020Z,68.84
2022-10-29T04:07:38.899Z,69.05
2022-10-29T04:09:40.779Z,68.88
2022-10-29T04:11:42.680Z,68.52
2022-10-29T04:13:44.608Z,68.99
2022-10-29T04:15:47.144Z,68.13
2022-10-29T04:17:51.396Z,68.15
2022-10-29T04:19:53.292Z,68.21
2022-10-29T04:29:01.785Z,68.25
2022-10-29T04:31:07.880Z,68.04
2022-10-29T04:33:09.722Z,68.37
2022-10-29T04:35:11.561Z,67.96
2022-10-29T04:37:13.729Z,68.66
2022-10-29T04:39:18.352Z,68.72
2022-10-29T04:41:22.979Z,68.22
2022-10-29T04:43:24.821Z,68.08
2022-10-29T04:45:27.031Z,68.66
2022-10-29T04:47:29.684Z,68.29
2022-10-29T04:49:31.699Z,68.02
2022-10-29T04:51:33.690Z,68.39
2022-10-29T04:53:35.585Z,68.47
2022-10-29T04:55:38.767Z,68.03
2022-10-29T04:57:40.664Z,68.29
2022-10-29T04:59:42.591Z,68.08
2022-10-29T05:01:44.402Z,68.15
2022-10-29T05:03:46.276Z,68.20
2022-10-29T05:05:48.147Z,68.60
2022-10-29T05:07:50.125Z,68.47
2022-10-29T05:09:52.008Z,68.34
2022-10-29T05:11:53.887Z,68.66
2022-10-29T05:13:55.814Z,68.25
2022-10-29T05:15:57.735Z,68.06
2022-10-29T05:18:02.770Z,68.23
2022-10-29T05:20:05.072Z,68.25
2022-10-29T05:22:06.905Z,68.06
2022-10-29T05:24:08.806Z,68.37
2022-10-29T05:26:10.662Z,67.77
2022-10-29T05:28:15.262Z,67.80
2022-10-29T05:30:17.235Z,67.32
2022-10-29T05:32:19.147Z,67.89
2022-10-29T05:34:21.728Z,68.17
2022-10-29T05:36:23.670Z,67.47
2022-10-29T05:38:27.152Z,67.93
2022-10-29T05:40:28.999Z,67.87
2022-10-29T05:42:30.907Z,67.72
2022-10-29T05:44:33.121Z,67.32
2022-10-29T05:46:38.587Z,67.53
2022-10-29T05:48:40.632Z,68.13
2022-10-29T05:50:45.430Z,67.76
2022-10-29T05:52:58.983Z,68.42
2022-10-29T05:55:01.137Z,68.47
2022-10-29T05:57:02.963Z,67.96
2022-10-29T05:59:04.895Z,67.90
2022-10-29T06:01:08.466Z,68.18
2022-10-29T06:03:21.164Z,68.32
2022-10-29T06:05:26.550Z,67.92
2022-10-29T06:07:28.423Z,68.57
2022-10-29T06:09:30.471Z,67.95
2022-10-29T06:11:32.409Z,68.81
2022-10-29T06:13:34.323Z,68.18
2022-10-29T06:15:36.203Z,68.13
2022-10-29T06:17:42.589Z,68.97
2022-10-29T06:19:44.498Z,68.67
2022-10-29T06:21:46.607Z,68.63
2022-10-29T06:23:48.484Z,68.46
2022-10-29T06:25:50.446Z,68.89
2022-10-29T06:28:02.923Z,68.46
2022-10-29T06:30:06.315Z,68.98
2022-10-29T06:32:08.214Z,68.70
2022-10-29T06:34:10.056Z,68.57
2022-10-29T06:36:12.969Z,68.73
2022-10-29T06:38:15.309Z,69.11
2022-10-29T06:40:17.861Z,68.32
2022-10-29T06:42:19.762Z,68.08
2022-10-29T06:44:21.612Z,68.29
2022-10-29T06:46:23.599Z,68.65
2022-10-29T06:48:25.639Z,69.05
2022-10-29T06:50:28.474Z,68.31
2022-10-29T06:52:30.392Z,67.92
2022-10-29T06:54:33.269Z,68.02
2022-10-29T06:56:35.188Z,68.22
2022-10-29T06:58:37.019Z,67.62
2022-10-29T07:00:39.585Z,68.02
2022-10-29T07:02:41.540Z,67.54
2022-10-29T07:04:44.309Z,67.69
2022-10-29T07:06:46.164Z,67.61
2022-10-29T07:08:48.090Z,67.99
2022-10-29T07:10:54.412Z,67.89
2022-10-29T07:12:56.632Z,67.25
2022-10-29T07:14:58.476Z,66.74
2022-10-29T07:17:00.438Z,66.15
2022-10-29T07:19:04.559Z,65.75
2022-10-29T07:21:06.574Z,65.39
2022-10-29T07:23:09.675Z,65.08
2022-10-29T07:25:11.556Z,64.36
2022-10-29T07:27:13.670Z,64.02
2022-10-29T07:29:15.642Z,63.75
2022-10-29T07:31:17.775Z,64.20
2022-10-29T07:33:20.010Z,62.93
2022-10-29T07:35:21.988Z,62.80
2022-10-29T07:37:23.987Z,62.63
2022-10-29T07:39:26.060Z,61.97
2022-10-29T07:41:28.082Z,61.67
2022-10-29T07:43:30.010Z,61.78
2022-10-29T07:45:32.874Z,61.10
2022-10-29T07:47:34.699Z,60.68
2022-10-29T07:49:37.590Z,61.66
2022-10-29T07:51:39.528Z,60.87
2022-10-29T07:53:41.462Z,60.65
2022-10-29T07:55:43.463Z,60.09
2022-10-29T07:57:45.302Z,60.91
2022-10-29T07:59:47.298Z,61.08
2022-10-29T08:01:49.521Z,61.28
2022-10-29T08:03:51.515Z,61.71
2022-10-29T08:05:57.611Z,61.81
2022-10-29T08:08:00.327Z,61.72
2022-10-29T08:10:03.722Z,62.14
2022-10-29T08:12:07.232Z,61.62
2022-10-29T08:14:13.093Z,62.39
2022-10-29T08:16:14.935Z,62.59
2022-10-29T08:18:18.049Z,63.00
2022-10-29T08:20:21.001Z,64.95
2022-10-29T08:22:22.990Z,64.89
2022-10-29T08:24:24.891Z,63.63
2022-10-29T08:26:26.733Z,64.20
2022-10-29T08:28:30.519Z,63.68
2022-10-29T08:30:35.972Z,64.02
2022-10-29T08:32:44.501Z,64.26
2022-10-29T08:34:46.364Z,63.70
2022-10-29T08:36:48.249Z,64.03
2022-10-29T08:38:50.168Z,63.51
2022-10-29T08:41:28.733Z,63.38
2022-10-29T08:43:54.926Z,62.26
2022-10-29T08:45:57.573Z,61.95
2022-10-29T08:48:22.452Z,62.45
2022-10-29T08:50:41.399Z,62.28
2022-10-29T08:52:53.423Z,61.86
2022-10-29T08:55:19.812Z,61.77
2022-10-29T08:57:25.630Z,61.22
2022-10-29T08:59:32.852Z,62.57
2022-10-29T09:01:36.253Z,64.01
2022-10-29T09:03:38.747Z,64.60
2022-10-29T09:06:08.572Z,65.09
2022-10-29T09:08:43.460Z,66.19
2022-10-29T09:10:53.998Z,66.59
2022-10-29T09:13:55.237Z,66.90
2022-10-29T09:16:03.712Z,66.87
2022-10-29T09:18:13.386Z,67.60
2022-10-29T09:20:42.531Z,66.83
2022-10-29T09:22:47.820Z,67.54
2022-10-29T09:25:00.990Z,67.40
2022-10-29T09:27:23.115Z,67.30
2022-10-29T09:29:46.279Z,67.81
2022-10-29T09:31:53.913Z,68.24
2022-10-29T09:34:02.277Z,68.34
2022-10-29T09:36:14.397Z,67.87
2022-10-29T09:38:30.902Z,68.21
2022-10-29T09:40:37.026Z,68.54
2022-10-29T09:42:42.635Z,68.59
2022-10-29T09:44:53.425Z,68.36
2022-10-29T09:47:08.664Z,68.77
2022-10-29T09:49:31.778Z,67.84
2022-10-29T09:52:00.896Z,68.26
2022-10-29T09:54:04.370Z,68.51
2022-10-29T09:56:09.784Z,68.67
2022-10-29T09:58:21.155Z,69.03
2022-10-29T10:00:24.705Z,69.35
2022-10-29T10:02:42.481Z,69.32
2022-10-29T10:04:48.014Z,69.32
2022-10-29T10:07:01.822Z,70.27
2022-10-29T10:09:06.053Z,69.57
2022-10-29T10:11:08.409Z,70.25
2022-10-29T10:13:17.125Z,70.45
2022-10-29T10:15:28.538Z,70.94
2022-10-29T10:17:58.068Z,70.97
2022-10-29T10:20:00.186Z,70.85
2022-10-29T10:22:05.800Z,70.94
2022-10-29T10:24:29.402Z,71.36
2022-10-29T10:26:35.974Z,71.02
2022-10-29T10:28:37.932Z,70.88
2022-10-29T10:30:39.740Z,71.04
2022-10-29T10:32:41.772Z,70.94
2022-10-29T10:34:43.769Z,71.21
2022-10-29T10:37:15.507Z,71.03
2022-10-29T10:39:37.489Z,70.60
2022-10-29T10:41:42.598Z,70.78
2022-10-29T10:43:46.549Z,71.24
2022-10-29T10:45:55.516Z,71.45
2022-10-29T10:47:59.442Z,71.57
2022-10-29T10:50:20.913Z,71.42
2022-10-29T10:52:29.704Z,71.20
2022-10-29T10:54:44.571Z,71.15
2022-10-29T10:56:58.034Z,70.43
2022-10-29T10:59:07.841Z,69.50
2022-10-29T11:01:15.313Z,69.60
2022-10-29T11:03:39.842Z,68.65
2022-10-29T11:05:58.249Z,68.66
2022-10-29T11:08:09.130Z,68.44
2022-10-29T11:10:13.667Z,69.31
2022-10-29T11:12:37.323Z,69.32
2022-10-29T11:14:55.040Z,69.25
2022-10-29T11:17:02.018Z,70.28
2022-10-29T11:19:34.279Z,70.59
2022-10-29T11:22:12.652Z,70.10
2022-10-29T11:24:20.503Z,70.64
2022-10-29T11:27:01.533Z,70.14
2022-10-29T11:29:28.083Z,70.11
2022-10-29T11:31:40.919Z,70.27
2022-10-29T11:33:56.469Z,70.43
2022-10-29T11:36:06.548Z,70.06
2022-10-29T11:38:19.674Z,70.88
2022-10-29T11:40:36.810Z,70.35
2022-10-29T11:42:39.502Z,69.44
2022-10-29T11:44:41.800Z,69.71
2022-10-29T11:47:09.728Z,69.67
2022-10-29T11:49:36.424Z,69.82
2022-10-29T11:52:03.827Z,69.55
2022-10-29T11:54:33.637Z,68.67
2022-10-29T11:56:56.328Z,68.25
2022-10-29T11:59:13.886Z,68.24
2022-10-29T12:01:34.806Z,68.50
2022-10-29T12:03:51.797Z,67.94
2022-10-29T12:06:11.709Z,66.92
2022-10-29T12:08:35.166Z,65.91
2022-10-29T12:11:18.205Z,66.12
2022-10-29T12:13:24.607Z,65.79
2022-10-29T12:15:41.627Z,65.46
2022-10-29T12:18:04.897Z,65.75
2022-10-29T12:20:25.005Z,66.30
2022-10-29T12:22:40.736Z,66.33
2022-10-29T12:25:00.880Z,65.71
2022-10-29T12:27:06.585Z,65.30
2022-10-29T12:29:48.010Z,65.65
2022-10-29T12:32:01.956Z,65.63
2022-10-29T12:34:24.120Z,65.67
2022-10-29T12:37:07.986Z,65.85
2022-10-29T12:39:19.283Z,66.00
2022-10-29T12:41:25.645Z,65.96
2022-10-29T12:43:30.599Z,66.42
2022-10-29T12:48:57.810Z,65.57
2022-10-29T12:51:11.777Z,65.60
2022-10-29T12:53:44.854Z,64.63
2022-10-29T12:55:47.632Z,64.60
2022-10-29T12:57:49.532Z,65.57
2022-10-29T12:59:51.583Z,64.77
2022-10-29T13:02:11.301Z,65.09
2022-10-29T13:04:28.783Z,65.10
2022-10-29T13:06:42.814Z,64.98
2022-10-29T13:08:55.868Z,63.80
2022-10-29T13:10:58.026Z,64.04
2022-10-29T13:12:59.956Z,63.55
2022-10-29T13:15:09.610Z,64.19
2022-10-29T13:17:39.270Z,64.78
2022-10-29T13:19:50.445Z,65.16
2022-10-29T13:22:01.753Z,65.31
2022-10-29T13:24:05.444Z,65.82
2022-10-29T13:26:09.185Z,65.57
2022-10-29T13:28:31.912Z,65.01
2022-10-29T13:30:38.543Z,65.71
2022-10-29T13:32:40.413Z,64.94
2022-10-29T13:35:00.084Z,64.85
2022-10-29T13:37:37.093Z,65.47
2022-10-29T13:39:38.973Z,65.20
2022-10-29T13:41:44.365Z,65.55
2022-10-29T13:44:04.718Z,65.66
2022-10-29T13:46:17.549Z,65.50
2022-10-29T13:48:31.817Z,66.21
2022-10-29T13:50:35.570Z,66.51
2022-10-29T13:52:40.792Z,66.66
2022-10-29T13:54:47.860Z,66.71
2022-10-29T13:57:16.941Z,66.92
2022-10-29T13:59:43.109Z,67.30
2022-10-29T14:01:56.255Z,67.76
2022-10-29T14:04:06.601Z,67.90
2022-10-29T14:06:21.211Z,67.70
2022-10-29T14:08:42.204Z,68.10
2022-10-29T14:10:43.994Z,67.88
2022-10-29T14:12:48.656Z,68.63
2022-10-29T14:15:00.582Z,68.39
2022-10-29T14:17:19.455Z,68.73
2022-10-29T14:19:21.949Z,68.75
2022-10-29T14:21:27.970Z,68.92
2022-10-29T14:23:32.342Z,69.53
2022-10-29T14:25:36.414Z,69.97
2022-10-29T14:27:38.271Z,70.24
2022-10-29T14:29:40.264Z,70.24
2022-10-29T14:31:42.205Z,70.76
2022-10-29T14:33:57.976Z,70.72
2022-10-29T14:36:14.375Z,70.77
2022-10-29T14:38:17.010Z,70.95
2022-10-29T14:40:23.365Z,71.03
2022-10-29T14:42:32.746Z,71.57
2022-10-29T14:44:34.918Z,70.68
2022-10-29T14:46:38.507Z,71.17
2022-10-29T14:48:52.838Z,70.95
2022-10-29T14:50:56.745Z,71.61
2022-10-29T14:53:06.310Z,71.58
2022-10-29T14:55:18.278Z,71.11
2022-10-29T14:57:24.190Z,71.16
2022-10-29T14:59:29.427Z,72.03
2022-10-29T15:01:32.785Z,71.65
2022-10-29T15:03:35.886Z,71.93
2022-10-29T15:05:39.007Z,71.72
2022-10-29T15:07:40.926Z,72.31
2022-10-29T15:09:45.977Z,72.51
2022-10-29T15:12:09.094Z,73.21
2022-10-29T15:15:00.053Z,73.00
2022-10-29T15:17:09.662Z,73.42
2022-10-29T15:19:15.845Z,73.35
2022-10-29T15:21:27.372Z,73.63
2022-10-29T15:23:45.474Z,73.21
2022-10-29T15:25:49.692Z,73.71
2022-10-29T15:27:52.841Z,73.75
2022-10-29T15:29:55.424Z,74.19
2022-10-29T15:31:58.042Z,73.85
2022-10-29T15:34:08.914Z,73.61
2022-10-29T15:36:10.875Z,73.82
2022-10-29T15:38:41.758Z,73.63
2022-10-29T15:40:59.729Z,74.16
2022-10-29T15:43:29.271Z,73.65
2022-10-29T15:45:31.211Z,73.92
2022-10-29T15:47:34.761Z,73.95
2022-10-29T15:49:36.693Z,74.15
2022-10-29T15:51:38.520Z,74.61
2022-10-29T15:53:40.534Z,74.88
2022-10-29T15:55:43.999Z,75.10
2022-10-29T15:57:46.155Z,74.95
2022-10-29T15:59:48.034Z,75.03
2022-10-29T16:01:50.102Z,75.23
2022-10-29T16:03:52.189Z,75.29
2022-10-29T16:06:02.189Z,75.30
2022-10-29T16:08:04.344Z,75.30
2022-10-29T16:10:06.720Z,75.36
2022-10-29T16:12:10.755Z,75.09
2022-10-29T16:14:12.703Z,75.61
2022-10-29T16:16:17.544Z,75.78
2022-10-29T16:18:19.752Z,75.96
2022-10-29T16:20:21.634Z,76.27
2022-10-29T16:22:30.439Z,76.18
2022-10-29T16:24:34.242Z,76.42
2022-10-29T16:26:36.053Z,76.92
2022-10-29T16:28:38.173Z,76.67
2022-10-29T16:32:43.655Z,76.83
2022-10-29T16:34:45.558Z,77.21
2022-10-29T16:36:47.435Z,77.31
2022-10-29T16:38:49.375Z,77.42
2022-10-29T16:40:51.455Z,77.56
2022-10-29T16:42:57.009Z,77.56
2022-10-29T16:44:59.168Z,77.63
2022-10-29T16:47:01.126Z,78.10
2022-10-29T16:49:03.003Z,78.04
2022-10-29T16:51:05.598Z,78.01
2022-10-29T16:53:12.347Z,78.25
2022-10-29T16:55:14.759Z,78.44
2022-10-29T16:57:16.605Z,78.61
2022-10-29T16:59:18.812Z,78.06
2022-10-29T17:03:29.483Z,78.64
2022-10-29T17:05:34.842Z,78.53
2022-10-29T17:07:37.279Z,78.96
2022-10-29T17:09:40.173Z,78.97
2022-10-29T17:11:42.115Z,78.78
2022-10-29T17:13:44.034Z,78.46
2022-10-29T17:15:46.215Z,78.99
2022-10-29T17:17:48.297Z,78.68
2022-10-29T17:19:50.731Z,78.95
2022-10-29T17:21:53.419Z,79.20
2022-10-29T17:23:55.267Z,79.12
2022-10-29T17:25:58.487Z,79.25
2022-10-29T17:28:00.724Z,79.20
2022-10-29T17:30:02.777Z,79.13
2022-10-29T17:32:08.050Z,79.48
2022-10-29T17:34:10.217Z,79.72
2022-10-29T17:36:14.544Z,79.48
2022-10-29T17:38:16.534Z,79.91
2022-10-29T17:40:18.814Z,79.90
2022-10-29T17:42:21.260Z,80.05
2022-10-29T17:44:23.524Z,80.39
2022-10-29T17:46:25.841Z,80.24
2022-10-29T17:48:27.776Z,80.06
2022-10-29T17:50:29.638Z,80.19
2022-10-29T17:52:31.477Z,80.33
2022-10-29T17:54:35.170Z,80.40
2022-10-29T17:56:38.222Z,80.54
2022-10-29T17:58:40.249Z,80.32
2022-10-29T18:00:42.412Z,80.40
2022-10-29T18:02:49.545Z,80.42
2022-10-29T18:04:54.007Z,80.61
2022-10-29T18:06:56.703Z,80.46
2022-10-29T18:09:00.898Z,80.78
2022-10-29T18:11:12.078Z,80.79
2022-10-29T18:13:15.999Z,80.26
2022-10-29T18:15:18.295Z,80.42
2022-10-29T18:17:20.236Z,80.83
2022-10-29T18:19:22.418Z,80.68
2022-10-29T18:21:25.922Z,80.97
2022-10-29T18:23:28.084Z,80.72
2022-10-29T18:25:30.456Z,80.61
2022-10-29T18:27:32.405Z,80.89
2022-10-29T18:29:34.359Z,81.17
2022-10-29T18:31:38.172Z,80.93
2022-10-29T18:33:40.488Z,81.11
2022-10-29T18:35:42.382Z,80.68
2022-10-29T18:37:45.727Z,80.39
2022-10-29T18:39:47.587Z,80.90
2022-10-29T18:41:49.847Z,81.02
2022-10-29T18:43:52.474Z,81.15
2022-10-29T18:46:02.853Z,80.71
2022-10-29T18:48:05.357Z,81.35
2022-10-29T18:50:07.814Z,80.94
2022-10-29T18:52:09.878Z,80.97
2022-10-29T18:54:13.681Z,81.02
2022-10-29T18:56:19.826Z,81.21
2022-10-29T18:58:22.463Z,81.22
2022-10-29T19:00:24.269Z,81.02
2022-10-29T19:02:27.566Z,80.98
2022-10-29T19:04:29.842Z,81.63
2022-10-29T19:06:33.754Z,81.28
2022-10-29T19:08:37.871Z,81.24
2022-10-29T19:10:42.165Z,81.87
2022-10-29T19:12:44.060Z,82.06
2022-10-29T19:14:48.112Z,82.34
2022-10-29T19:16:50.104Z,82.15
2022-10-29T19:18:57.377Z,82.17
2022-10-29T19:21:08.831Z,82.03
2022-10-29T19:23:14.689Z,82.23
2022-10-29T19:25:17.892Z,81.88
2022-10-29T19:27:20.239Z,82.17
2022-10-29T19:29:22.117Z,82.01
2022-10-29T19:31:27.632Z,81.96
2022-10-29T19:33:31.292Z,81.96
2022-10-29T19:35:33.177Z,81.93
2022-10-29T19:37:36.534Z,81.92
2022-10-29T19:39:38.463Z,81.86
2022-10-29T19:41:40.705Z,82.19
2022-10-29T19:43:43.357Z,82.13
2022-10-29T19:45:45.407Z,81.94
2022-10-29T19:47:48.914Z,81.78
2022-10-29T19:49:51.365Z,82.47
2022-10-29T19:51:54.597Z,82.25
2022-10-29T19:53:59.499Z,82.00
2022-10-29T19:56:01.589Z,82.10
2022-10-29T19:58:04.521Z,81.98
2022-10-29T20:00:07.336Z,82.32
2022-10-29T20:02:10.998Z,82.43
2022-10-29T20:04:16.699Z,82.57
2022-10-29T20:06:19.139Z,82.33
2022-10-29T20:08:22.032Z,82.53
2022-10-29T20:10:24.455Z,82.65
2022-10-29T20:12:26.359Z,82.33
2022-10-29T20:14:29.654Z,82.62
2022-10-29T20:16:31.697Z,82.53
2022-10-29T20:18:36.484Z,82.83
2022-10-29T20:20:38.424Z,83.17
2022-10-29T20:22:40.802Z,83.29
2022-10-29T20:24:42.843Z,83.20
2022-10-29T20:26:45.010Z,83.47
2022-10-29T20:28:47.302Z,83.33
2022-10-29T20:30:49.410Z,83.51
2022-10-29T20:32:51.346Z,83.52
2022-10-29T20:34:53.757Z,83.61
2022-10-29T20:36:56.333Z,83.98
2022-10-29T20:38:58.863Z,83.86
2022-10-29T20:41:01.867Z,83.67
2022-10-29T20:43:03.822Z,83.69
2022-10-29T20:45:07.205Z,83.76
2022-10-29T20:47:09.184Z,83.75
2022-10-29T20:49:11.233Z,83.60
2022-10-29T20:51:14.707Z,83.52
2022-10-29T20:53:16.772Z,83.72
2022-10-29T20:55:18.871Z,83.69
2022-10-29T20:57:20.878Z,83.71
2022-10-29T20:59:22.742Z,83.83
2022-10-29T21:01:26.061Z,83.54
2022-10-29T21:03:28.144Z,84.02
2022-10-29T21:05:30.073Z,84.06
2022-10-29T21:07:32.047Z,84.19
2022-10-29T21:09:34.068Z,84.25
2022-10-29T21:11:36.039Z,84.40
2022-10-29T21:13:38.445Z,84.48
2022-10-29T21:15:40.371Z,84.57
2022-10-29T21:17:42.263Z,84.96
2022-10-29T21:19:46.242Z,84.87
2022-10-29T21:21:48.322Z,84.95
2022-10-29T21:23:50.322Z,85.00
2022-10-29T21:25:53.765Z,85.29
2022-10-29T21:27:56.024Z,85.38
2022-10-29T21:29:58.397Z,85.46
2022-10-29T21:32:00.440Z,85.42
2022-10-29T21:34:02.930Z,85.72
2022-10-29T21:36:05.918Z,85.34
2022-10-29T21:38:07.955Z,85.63
2022-10-29T21:40:10.710Z,85.64
2022-10-29T21:42:12.855Z,85.51
2022-10-29T21:44:15.752Z,85.70
2022-10-29T21:46:17.638Z,85.51
2022-10-29T21:48:21.848Z,85.54
2022-10-29T21:50:23.839Z,85.35
2022-10-29T21:52:25.722Z,85.30
2022-10-29T21:54:28.437Z,85.71
2022-10-29T21:56:30.556Z,85.45
2022-10-29T21:58:33.204Z,85.32
2022-10-29T22:00:35.220Z,85.33
2022-10-29T22:02:38.167Z,85.65
2022-10-29T22:04:40.189Z,85.58
2022-10-29T22:06:42.037Z,85.40
2022-10-29T22:08:44.508Z,85.42
2022-10-29T22:10:46.466Z,85.21
2022-10-29T22:12:54.661Z,85.27
2022-10-29T22:14:56.676Z,85.14
2022-10-29T22:16:58.909Z,85.14
2022-10-29T22:19:00.767Z,85.09
2022-10-29T22:21:11.535Z,84.96
2022-10-29T22:25:21.455Z,84.74
2022-10-29T22:27:23.276Z,85.17
2022-10-29T22:29:25.151Z,85.05
2022-10-29T22:31:27.571Z,84.84
2022-10-29T22:33:29.685Z,85.02
2022-10-29T22:35:32.696Z,85.12
2022-10-29T22:37:34.819Z,85.03
2022-10-29T22:39:37.736Z,85.01
2022-10-29T22:41:39.616Z,84.94
2022-10-29T22:43:42.632Z,84.72
2022-10-29T22:45:46.424Z,84.67
2022-10-29T22:47:49.304Z,84.84
2022-10-29T22:49:51.280Z,85.04
2022-10-29T22:51:57.139Z,84.85
2022-10-29T22:54:02.554Z,84.77
2022-10-29T22:56:05.080Z,84.75
2022-10-29T22:58:07.035Z,84.42
2022-10-29T23:00:09.532Z,84.76
2022-10-29T23:02:11.609Z,84.77
2022-10-29T23:04:13.873Z,84.71
2022-10-29T23:06:18.300Z,84.64
2022-10-29T23:08:20.165Z,84.66
2022-10-29T23:10:23.088Z,84.65
2022-10-29T23:12:24.911Z,84.94
2022-10-29T23:14:27.524Z,84.84
2022-10-29T23:16:32.863Z,84.84
2022-10-29T23:18:34.643Z,85.02
2022-10-29T23:20:38.464Z,84.52
2022-10-29T23:22:40.411Z,84.91
2022-10-29T23:24:42.248Z,84.64
2022-10-29T23:26:44.042Z,84.73
2022-10-29T23:28:46.430Z,84.52
2022-10-29T23:30:56.908Z,84.87
2022-10-29T23:33:00.558Z,84.68
2022-10-29T23:35:04.748Z,84.91
2022-10-29T23:37:09.757Z,84.59
2022-10-29T23:39:12.542Z,85.13
2022-10-29T23:41:14.804Z,84.78
2022-10-29T23:43:16.765Z,85.20
2022-10-29T23:45:18.692Z,85.10
2022-10-29T23:47:21.587Z,84.85
2022-10-29T23:49:23.479Z,84.87
2022-10-29T23:51:25.405Z,84.82
2022-10-29T23:53:29.815Z,85.28
2022-10-29T23:55:31.691Z,85.39
2022-10-29T23:57:33.527Z,85.01
2022-10-29T23:59:35.418Z,84.97
